Fort Macleod, Canada
Current Conditions -  °F | °C
As of 2:00 AM on Thursday 27 Nov 2014 (Local Time) from CYQL Reporting Station
Overcast Overcast  
Wind Chill: 22°   Ceiling: 14000
Heat Index: 28°   Visibility: 9mi
Dew Point: 27°   Wind: 6mph
Humidity: 93%   Direction: 140°SE
Pressure: 29.84"   Gusts: NA
Location:  49.73°N, 113.4°W
Report Text: CYQL 270900Z AUTO 14005KT 100V180 9SM BKN140 OVC160 M02/M03 A2984 RMK SLP145
Loading
Personal Weather Stations






























Interactive Weather Map New forecast layout! Learn more

10-Day Weather Forecast

Advertisements
Track Severe Weather on mobile